Time;durP1;ratioP1;P1;durP2;ratioP2;P2;SDS_P1;SDS_P2;PMS_P1;PMS_P2;Temp;Humidity;BMP_temperature;BMP_pressure;BME280_temperature;BME280_humidity;BME280_pressure;Samples;Min_cycle;Max_cycle;Signal;HPM_P1;HPM_P2
2020/12/30 00:00:10;;;;;;;11.68;5.68;;;;;;;-0.34;100.00;94423.59;1023838;29;20495;-73
2020/12/30 00:00:40;;;;;;;9.73;5.70;;;;;;;-0.34;100.00;94431.41;1027732;28;20487;-73
2020/12/30 00:01:11;;;;;;;9.35;5.25;;;;;;;-0.33;100.00;94422.63;1023720;29;20023;-73
2020/12/30 00:01:42;;;;;;;11.30;5.68;;;;;;;-0.36;100.00;94420.31;1035800;28;20108;-73
2020/12/30 00:02:13;;;;;;;8.98;5.53;;;;;;;-0.38;100.00;94422.25;1033949;28;20050;-74
2020/12/30 00:02:44;;;;;;;9.48;5.55;;;;;;;-0.34;100.00;94423.59;1031664;28;20069;-73
2020/12/30 00:03:14;;;;;;;8.90;4.95;;;;;;;-0.34;100.00;94428.81;1019746;29;20028;-73
2020/12/30 00:03:45;;;;;;;10.82;5.63;;;;;;;-0.50;100.00;94408.59;1027739;28;20038;-73
2020/12/30 00:04:16;;;;;;;9.65;5.10;;;;;;;-0.35;100.00;94427.16;1027757;28;20034;-73
2020/12/30 00:04:46;;;;;;;11.43;5.60;;;;;;;-0.35;100.00;94429.75;1027712;28;20472;-73
2020/12/30 00:05:17;;;;;;;9.93;5.18;;;;;;;-0.34;100.00;94431.41;1027744;28;20083;-73
2020/12/30 00:05:48;;;;;;;11.02;5.28;;;;;;;-0.37;100.00;94426.50;1023885;29;20022;-74
2020/12/30 00:06:19;;;;;;;8.98;5.25;;;;;;;-0.38;100.00;94423.06;1028532;28;20399;-73
2020/12/30 00:06:53;;;;;;;8.55;4.63;;;;;;;-0.39;100.00;94425.81;1024510;29;20107;-73
2020/12/30 00:07:24;;;;;;;9.20;5.05;;;;;;;-0.40;100.00;94419.78;1025436;29;20018;-73
2020/12/30 00:07:54;;;;;;;8.52;4.97;;;;;;;-0.40;100.00;94429.38;1026693;28;20054;-74
2020/12/30 00:08:25;;;;;;;8.88;5.30;;;;;;;-0.44;100.00;94422.84;1026685;29;20023;-73
2020/12/30 00:08:56;;;;;;;12.18;5.57;;;;;;;-0.48;100.00;94426.72;1034443;28;20021;-73
2020/12/30 00:09:27;;;;;;;8.85;5.30;;;;;;;-0.52;100.00;94414.91;1026842;28;20047;-73
2020/12/30 00:09:58;;;;;;;8.50;5.03;;;;;;;-0.46;100.00;94432.59;1030671;28;20054;-74
2020/12/30 00:10:28;;;;;;;9.75;5.63;;;;;;;-0.46;100.00;94429.97;1030588;28;20051;-74
2020/12/30 00:10:59;;;;;;;10.63;5.40;;;;;;;-0.48;100.00;94426.72;1026589;29;20099;-73
2020/12/30 00:11:30;;;;;;;11.18;6.03;;;;;;;-0.49;100.00;94428.47;1026652;29;20018;-74
2020/12/30 00:12:01;;;;;;;10.02;5.65;;;;;;;-0.49;100.00;94425.88;1030360;28;20029;-74
2020/12/30 00:12:32;;;;;;;8.52;5.78;;;;;;;-0.52;100.00;94425.34;1034786;28;20156;-73
2020/12/30 00:13:03;;;;;;;10.60;5.68;;;;;;;-0.51;100.00;94424.38;1034695;28;20109;-73
2020/12/30 00:13:34;;;;;;;10.40;5.63;;;;;;;-0.52;100.00;94423.56;1026922;28;20027;-74
2020/12/30 00:14:04;;;;;;;9.00;5.53;;;;;;;-0.62;100.00;94421.00;1026705;29;20027;-73
2020/12/30 00:14:35;;;;;;;11.45;6.20;;;;;;;-0.72;100.00;94393.38;1030948;28;20466;-73
2020/12/30 00:15:07;;;;;;;10.65;5.38;;;;;;;-0.54;100.00;94432.50;1035122;28;20498;-74
2020/12/30 00:15:37;;;;;;;11.90;5.78;;;;;;;-0.57;100.00;94439.66;1030807;28;20038;-74
2020/12/30 00:16:08;;;;;;;9.68;5.97;;;;;;;-0.60;100.00;94434.72;1022697;29;20035;-74
2020/12/30 00:16:39;;;;;;;9.32;5.88;;;;;;;-0.58;100.00;94439.78;1034716;28;20011;-74
2020/12/30 00:17:10;;;;;;;10.93;6.28;;;;;;;-0.67;100.00;94425.84;1034920;28;20046;-73
2020/12/30 00:17:43;;;;;;;10.18;5.18;;;;;;;-0.62;100.00;94428.84;1026538;28;20034;-73
2020/12/30 00:18:14;;;;;;;10.20;6.10;;;;;;;-0.62;100.00;94434.03;1030686;28;20029;-73
2020/12/30 00:18:45;;;;;;;10.93;5.90;;;;;;;-0.64;100.00;94428.16;1034575;28;20030;-73
2020/12/30 00:19:15;;;;;;;10.77;5.78;;;;;;;-0.63;100.00;94435.03;1030873;28;20299;-74
2020/12/30 00:19:46;;;;;;;11.13;6.25;;;;;;;-0.81;100.00;94405.47;1030749;28;20061;-73
2020/12/30 00:20:18;;;;;;;8.95;5.70;;;;;;;-0.61;100.00;94429.63;1030233;28;20458;-74
2020/12/30 00:20:48;;;;;;;9.40;5.78;;;;;;;-0.61;100.00;94434.84;1029519;28;20073;-74
2020/12/30 00:21:19;;;;;;;10.68;5.40;;;;;;;-0.61;100.00;94437.47;1029312;28;20129;-73
2020/12/30 00:21:50;;;;;;;11.23;5.88;;;;;;;-0.68;100.00;94426.81;1020946;29;20179;-74
2020/12/30 00:22:20;;;;;;;11.55;6.10;;;;;;;-0.67;100.00;94435.44;1024550;28;20033;-74
2020/12/30 00:22:52;;;;;;;10.77;6.35;;;;;;;-0.67;100.00;94433.66;1032737;28;20426;-73
2020/12/30 00:23:24;;;;;;;11.30;6.57;;;;;;;-0.69;100.00;94445.22;1032416;28;20018;-73
2020/12/30 00:23:54;;;;;;;13.48;6.53;;;;;;;-0.66;100.00;94440.53;1028574;28;20026;-73
2020/12/30 00:24:25;;;;;;;11.23;6.75;;;;;;;-0.70;100.00;94433.94;1028611;28;20093;-74
2020/12/30 00:24:56;;;;;;;10.15;6.03;;;;;;;-0.64;100.00;94443.81;1028753;28;20501;-74
2020/12/30 00:25:27;;;;;;;10.95;6.50;;;;;;;-0.63;100.00;94440.25;1028361;28;20042;-73
2020/12/30 00:25:58;;;;;;;9.40;6.60;;;;;;;-0.62;100.00;94444.47;1028450;28;20057;-73
2020/12/30 00:26:29;;;;;;;11.23;6.47;;;;;;;-0.61;100.00;94440.91;1020797;29;20026;-74
2020/12/30 00:27:03;;;;;;;12.30;6.20;;;;;;;-0.69;100.00;94435.59;1024559;29;20472;-73
2020/12/30 00:27:34;;;;;;;13.90;6.05;;;;;;;-0.60;100.00;94447.75;1032442;28;20034;-73
2020/12/30 00:28:05;;;;;;;19.25;8.40;;;;;;;-0.65;100.00;94430.91;1024421;29;20480;-73
2020/12/30 00:28:37;;;;;;;11.25;6.10;;;;;;;-0.59;100.00;94446.78;1028667;28;20023;-73
2020/12/30 00:29:08;;;;;;;12.00;6.47;;;;;;;-0.59;100.00;94454.63;1024579;29;20019;-73
2020/12/30 00:29:39;;;;;;;10.68;6.70;;;;;;;-0.59;100.00;94444.19;1028339;28;20450;-73
2020/12/30 00:30:11;;;;;;;11.50;6.57;;;;;;;-0.59;100.00;94449.41;1028571;28;20538;-74
2020/12/30 00:30:41;;;;;;;10.25;5.80;;;;;;;-0.72;100.00;94419.44;1024611;28;20019;-73
2020/12/30 00:31:12;;;;;;;12.38;6.22;;;;;;;-0.66;100.00;94430.09;1028587;28;20011;-73
2020/12/30 00:31:43;;;;;;;11.45;6.10;;;;;;;-0.57;100.00;94442.25;1024414;29;20130;-73
2020/12/30 00:32:14;;;;;;;8.45;5.68;;;;;;;-0.55;100.00;94443.91;1032585;28;20033;-73
2020/12/30 00:32:45;;;;;;;9.77;5.95;;;;;;;-0.53;100.00;94452.41;1032722;28;20026;-73
2020/12/30 00:33:16;;;;;;;9.18;5.53;;;;;;;-0.54;100.00;94442.91;1024965;28;20092;-73
2020/12/30 00:33:47;;;;;;;11.50;6.75;;;;;;;-0.54;100.00;94443.75;1032832;28;20667;-73
2020/12/30 00:34:17;;;;;;;12.18;6.07;;;;;;;-0.51;100.00;94447.84;1020914;29;20015;-73
2020/12/30 00:34:48;;;;;;;8.18;5.32;;;;;;;-0.51;100.00;94442.63;1028702;28;20070;-74
2020/12/30 00:35:19;;;;;;;9.77;6.05;;;;;;;-0.52;100.00;94447.03;1032522;28;20471;-73
2020/12/30 00:35:50;;;;;;;11.15;6.13;;;;;;;-0.54;100.00;94435.09;1028348;28;20010;-73
2020/12/30 00:36:20;;;;;;;12.52;6.53;;;;;;;-0.50;100.00;94444.28;1028563;28;20467;-74
2020/12/30 00:36:51;;;;;;;11.00;6.30;;;;;;;-0.50;100.00;94445.09;1028445;28;20495;-74
2020/12/30 00:37:22;;;;;;;11.90;6.13;;;;;;;-0.69;100.00;94417.34;1024486;29;20026;-74
2020/12/30 00:37:53;;;;;;;10.43;5.93;;;;;;;-0.53;100.00;94444.56;1024334;29;20126;-73
2020/12/30 00:38:24;;;;;;;13.13;5.82;;;;;;;-0.52;100.00;94444.44;1024446;29;20038;-73
2020/12/30 00:38:55;;;;;;;11.43;6.07;;;;;;;-0.52;100.00;94448.81;1028473;28;20379;-74
2020/12/30 00:39:26;;;;;;;11.77;6.38;;;;;;;-0.54;100.00;94445.53;1032550;28;20464;-73
2020/12/30 00:39:56;;;;;;;10.57;6.28;;;;;;;-0.54;100.00;94442.91;1024769;28;20043;-73
2020/12/30 00:40:27;;;;;;;9.35;6.28;;;;;;;-0.53;100.00;94444.56;1028411;28;20106;-73
2020/12/30 00:40:58;;;;;;;11.45;6.10;;;;;;;-0.54;100.00;94445.53;1028537;28;20018;-74
2020/12/30 00:41:28;;;;;;;12.70;6.70;;;;;;;-0.54;100.00;94440.31;1032457;28;20049;-73
2020/12/30 00:41:59;;;;;;;8.48;5.30;;;;;;;-0.52;100.00;94446.19;1032301;28;20108;-73
2020/12/30 00:42:31;;;;;;;10.85;6.30;;;;;;;-0.55;100.00;94444.72;1032343;28;20038;-73
2020/12/30 00:43:01;;;;;;;9.73;5.50;;;;;;;-0.57;100.00;94447.47;1024454;28;20432;-73
2020/12/30 00:43:32;;;;;;;8.95;5.65;;;;;;;-0.54;100.00;94445.53;1032525;28;20077;-74
2020/12/30 00:44:03;;;;;;;11.43;6.03;;;;;;;-0.54;100.00;94448.13;1032411;28;20479;-73
2020/12/30 00:44:34;;;;;;;9.70;5.60;;;;;;;-0.55;100.00;94446.50;1024507;29;20031;-73
2020/12/30 00:45:06;;;;;;;11.00;6.05;;;;;;;-0.60;100.00;94433.91;1032475;28;20015;-73
2020/12/30 00:45:36;;;;;;;10.10;5.55;;;;;;;-0.64;100.00;94424.75;1028392;28;20356;-74
2020/12/30 00:46:15;;;;;;;11.02;6.70;;;;;;;-0.59;100.00;94435.56;1020273;29;20134;-73
2020/12/30 00:46:55;;;;;;;9.45;5.53;;;;;;;-0.55;100.00;94436.91;1032441;28;20022;-74
2020/12/30 00:47:27;;;;;;;8.77;5.60;;;;;;;-0.56;100.00;94435.25;1024350;28;20023;-73
2020/12/30 00:47:57;;;;;;;10.02;5.90;;;;;;;-0.59;100.00;94420.72;1028316;28;20011;-73
2020/12/30 00:48:28;;;;;;;10.32;5.47;;;;;;;-0.54;100.00;94435.94;1024420;29;20031;-73
2020/12/30 00:48:59;;;;;;;9.77;5.65;;;;;;;-0.53;100.00;94434.16;1024484;29;20015;-74
2020/12/30 00:49:30;;;;;;;9.98;5.72;;;;;;;-0.54;100.00;94437.72;1028739;28;20034;-73
2020/12/30 00:50:01;;;;;;;9.98;5.55;;;;;;;-0.55;100.00;94436.09;1028397;28;20171;-73
2020/12/30 00:50:31;;;;;;;11.55;5.65;;;;;;;-0.57;100.00;94429.22;1032321;28;20521;-73
2020/12/30 00:51:02;;;;;;;8.85;5.47;;;;;;;-0.72;100.00;94409.81;1028320;28;20489;-74
2020/12/30 00:51:33;;;;;;;9.43;5.57;;;;;;;-0.58;100.00;94430.16;1028453;28;20014;-73
2020/12/30 00:52:04;;;;;;;10.30;5.72;;;;;;;-0.58;100.00;94429.34;1028442;28;20017;-73
2020/12/30 00:52:35;;;;;;;11.25;5.60;;;;;;;-0.58;100.00;94432.78;1032178;28;20077;-73
2020/12/30 00:53:06;;;;;;;10.43;5.88;;;;;;;-0.58;100.00;94440.59;1024552;28;20023;-73
2020/12/30 00:53:36;;;;;;;10.27;6.00;;;;;;;-0.59;100.00;94431.16;1024563;29;20020;-74
2020/12/30 00:54:07;;;;;;;9.00;5.90;;;;;;;-0.61;100.00;94438.31;1028283;28;20443;-74
2020/12/30 00:54:38;;;;;;;9.90;6.13;;;;;;;-0.60;100.00;94433.91;1036442;28;20025;-73
2020/12/30 00:55:11;;;;;;;11.93;5.78;;;;;;;-0.69;100.00;94425.16;1032478;28;20029;-74
2020/12/30 00:55:42;;;;;;;8.23;5.22;;;;;;;-0.75;100.00;94412.69;1024454;28;20023;-74
2020/12/30 00:56:13;;;;;;;11.38;5.90;;;;;;;-0.69;100.00;94419.97;1028610;28;20039;-74
2020/12/30 00:56:44;;;;;;;8.82;5.60;;;;;;;-0.62;100.00;94438.44;1024395;29;20023;-73
2020/12/30 00:57:15;;;;;;;8.77;5.15;;;;;;;-0.64;100.00;94443.81;1020424;29;20031;-73
2020/12/30 00:57:46;;;;;;;8.88;5.53;;;;;;;-0.68;100.00;94439.84;1028412;28;20719;-74
2020/12/30 00:58:16;;;;;;;8.98;5.13;;;;;;;-0.65;100.00;94436.13;1028415;28;20045;-74
2020/12/30 00:58:47;;;;;;;11.65;5.95;;;;;;;-0.69;100.00;94443.41;1028129;28;20015;-73
2020/12/30 00:59:18;;;;;;;10.77;5.72;;;;;;;-0.70;100.00;94452.19;1036561;28;20026;-74
2020/12/30 00:59:49;;;;;;;9.15;5.70;;;;;;;-0.77;100.00;94443.31;1028450;28;20086;-73
2020/12/30 01:00:21;;;;;;;10.43;5.75;;;;;;;-0.86;100.00;94437.16;1028431;28;20011;-74
2020/12/30 01:00:52;;;;;;;11.40;6.30;;;;;;;-0.82;100.00;94446.38;1032156;28;20070;-73
2020/12/30 01:01:22;;;;;;;11.60;6.20;;;;;;;-0.85;100.00;94446.66;1024444;29;20030;-74
2020/12/30 01:01:56;;;;;;;10.77;6.15;;;;;;;-0.90;100.00;94442.84;1028305;28;20118;-74
2020/12/30 01:02:26;;;;;;;10.07;6.13;;;;;;;-0.84;100.00;94453.47;1020364;29;20062;-74
2020/12/30 01:02:57;;;;;;;9.77;6.18;;;;;;;-0.94;100.00;94431.88;1024017;29;20505;-73
2020/12/30 01:03:28;;;;;;;10.00;6.20;;;;;;;-0.92;100.00;94449.94;1028768;28;20019;-74
2020/12/30 01:03:59;;;;;;;13.15;6.80;;;;;;;-0.93;100.00;94448.31;1028745;28;20422;-74
2020/12/30 01:04:29;;;;;;;11.57;6.10;;;;;;;-0.90;100.00;94453.25;1029260;28;20025;-73
2020/12/30 01:05:00;;;;;;;10.38;6.60;;;;;;;-0.92;100.00;94449.94;1028149;28;20463;-73
2020/12/30 01:05:31;;;;;;;10.07;5.38;;;;;;;-0.92;100.00;94449.94;1028402;28;20130;-73
2020/12/30 01:06:02;;;;;;;11.68;6.38;;;;;;;-0.93;100.00;94454.34;1020339;29;20079;-74
2020/12/30 01:06:33;;;;;;;11.10;6.28;;;;;;;-0.95;100.00;94445.84;1024316;29;20030;-73
2020/12/30 01:07:03;;;;;;;12.80;6.30;;;;;;;-0.95;100.00;94451.88;1024286;29;20027;-73
2020/12/30 01:07:34;;;;;;;8.68;5.72;;;;;;;-0.94;100.00;94447.50;1024331;29;20413;-73
2020/12/30 01:08:05;;;;;;;10.15;5.68;;;;;;;-1.21;100.00;94404.00;1028259;28;20027;-73
2020/12/30 01:08:35;;;;;;;11.10;6.65;;;;;;;-0.97;100.00;94443.41;1028495;28;20514;-73
2020/12/30 01:09:06;;;;;;;11.27;6.57;;;;;;;-0.92;100.00;94445.56;1028389;28;20492;-73
2020/12/30 01:09:38;;;;;;;10.82;5.90;;;;;;;-0.97;100.00;94442.59;1020327;28;20018;-73
2020/12/30 01:10:09;;;;;;;10.27;6.22;;;;;;;-0.98;100.00;94452.16;1028383;28;20136;-73
2020/12/30 01:10:40;;;;;;;10.82;6.68;;;;;;;-1.00;100.00;94445.47;1032380;28;20158;-73
2020/12/30 01:11:11;;;;;;;10.30;6.20;;;;;;;-1.00;100.00;94455.88;1028214;28;20501;-73
2020/12/30 01:11:42;;;;;;;11.27;6.15;;;;;;;-1.07;100.00;94437.41;1032365;28;20080;-73
2020/12/30 01:12:13;;;;;;;12.48;6.65;;;;;;;-1.01;100.00;94454.22;1028258;28;20077;-73
2020/12/30 01:12:43;;;;;;;9.70;5.95;;;;;;;-1.02;100.00;94455.22;1024344;29;20110;-73
2020/12/30 01:13:15;;;;;;;8.95;5.50;;;;;;;-1.03;100.00;94453.56;1028218;28;20024;-73
2020/12/30 01:13:45;;;;;;;9.73;6.35;;;;;;;-1.05;100.00;94451.09;1028223;28;20042;-73
2020/12/30 01:14:16;;;;;;;13.35;6.43;;;;;;;-1.03;100.00;94458.75;1032362;28;20014;-74
2020/12/30 01:14:47;;;;;;;11.48;6.10;;;;;;;-1.01;100.00;94454.22;1028317;28;20015;-73
2020/12/30 01:15:18;;;;;;;10.85;5.22;;;;;;;-1.03;100.00;94462.22;1024104;29;20495;-73
2020/12/30 01:15:49;;;;;;;12.35;6.30;;;;;;;-1.08;100.00;94447.94;1024384;29;20075;-73
2020/12/30 01:16:21;;;;;;;8.70;5.43;;;;;;;-1.03;100.00;94461.38;1024299;29;20011;-73
2020/12/30 01:16:52;;;;;;;10.38;5.72;;;;;;;-1.05;100.00;94458.09;1024298;28;20118;-73
2020/12/30 01:17:26;;;;;;;10.43;5.68;;;;;;;-1.06;100.00;94459.03;1019565;29;20027;-73
2020/12/30 01:17:56;;;;;;;9.82;6.13;;;;;;;-1.06;100.00;94462.50;1027840;28;20102;-73
2020/12/30 01:18:27;;;;;;;10.27;5.90;;;;;;;-1.06;100.00;94459.88;1024333;29;20008;-73
2020/12/30 01:18:58;;;;;;;10.82;5.80;;;;;;;-1.07;100.00;94465.22;1024378;29;20026;-73
2020/12/30 01:19:31;;;;;;;11.48;6.30;;;;;;;-1.12;100.00;94457.84;1032174;28;20065;-73
2020/12/30 01:20:02;;;;;;;9.63;6.28;;;;;;;-1.15;100.00;94456.34;1028444;28;20046;-73
2020/12/30 01:20:32;;;;;;;10.43;6.57;;;;;;;-1.12;100.00;94460.44;1028419;28;20014;-73
2020/12/30 01:21:03;;;;;;;11.32;6.22;;;;;;;-1.21;100.00;94443.88;1024325;28;20563;-73
2020/12/30 01:21:42;;;;;;;12.80;6.65;;;;;;;-1.12;100.00;94460.44;1032234;28;20105;-73
2020/12/30 01:22:13;;;;;;;9.60;5.95;;;;;;;-1.14;100.00;94455.38;1024315;29;20012;-74
2020/12/30 01:22:44;;;;;;;10.63;5.97;;;;;;;-1.21;100.00;94450.88;1028302;28;20130;-73
2020/12/30 01:23:14;;;;;;;9.77;6.10;;;;;;;-1.16;100.00;94459.91;1024446;29;20094;-73
2020/12/30 01:23:45;;;;;;;10.95;6.00;;;;;;;-1.16;100.00;94459.09;1020055;29;20026;-73
2020/12/30 01:24:16;;;;;;;8.93;5.40;;;;;;;-1.17;100.00;94458.28;1020341;29;20020;-73
2020/12/30 01:24:47;;;;;;;9.02;5.40;;;;;;;-1.19;100.00;94459.38;1020334;29;20018;-73
2020/12/30 01:25:18;;;;;;;10.57;6.22;;;;;;;-1.17;100.00;94462.66;1032380;28;20118;-73
2020/12/30 01:25:56;;;;;;;11.60;5.88;;;;;;;-1.37;100.00;94457.50;1028175;28;20015;-73
2020/12/30 01:26:26;;;;;;;12.82;7.63;;;;;;;-1.35;100.00;94467.78;1028293;28;20468;-73
2020/12/30 01:26:57;;;;;;;11.90;6.97;;;;;;;-1.36;100.00;94469.56;1024373;29;20007;-73
2020/12/30 01:27:28;;;;;;;11.85;6.90;;;;;;;-1.46;100.00;94453.13;1024317;29;20147;-73
2020/12/30 01:27:59;;;;;;;13.77;8.15;;;;;;;-1.37;100.00;94467.91;1032017;28;20022;-73
2020/12/30 01:28:29;;;;;;;10.45;7.20;;;;;;;-1.36;100.00;94466.94;1020469;29;20082;-74
2020/12/30 01:29:00;;;;;;;13.20;6.90;;;;;;;-1.37;100.00;94467.91;1024269;29;20019;-73
2020/12/30 01:29:31;;;;;;;12.15;7.70;;;;;;;-1.39;100.00;94464.63;1024281;29;20499;-73
2020/12/30 01:30:01;;;;;;;12.15;6.93;;;;;;;-1.45;100.00;94454.75;1024288;29;20061;-73
2020/12/30 01:30:32;;;;;;;11.68;7.15;;;;;;;-1.38;100.00;94468.03;1028247;28;20019;-73
2020/12/30 01:31:03;;;;;;;11.55;6.80;;;;;;;-1.38;100.00;94468.84;1028335;28;20492;-73
2020/12/30 01:31:34;;;;;;;11.35;6.43;;;;;;;-1.37;100.00;94467.09;1028290;28;20101;-72
2020/12/30 01:32:06;;;;;;;15.02;7.28;;;;;;;-1.39;100.00;94467.22;1024046;29;20077;-73
2020/12/30 01:32:37;;;;;;;12.60;7.00;;;;;;;-1.39;100.00;94469.84;1024168;29;20023;-73
2020/12/30 01:33:07;;;;;;;12.25;6.82;;;;;;;-1.40;100.00;94470.78;1028274;28;20062;-73
2020/12/30 01:33:38;;;;;;;10.80;7.25;;;;;;;-1.46;100.00;94460.94;1028157;28;20077;-72
2020/12/30 01:34:09;;;;;;;13.20;6.85;;;;;;;-1.40;100.00;94472.56;1028186;28;20046;-73
2020/12/30 01:34:40;;;;;;;10.50;6.72;;;;;;;-1.41;100.00;94471.75;1024484;29;20022;-73
2020/12/30 01:35:11;;;;;;;11.90;7.63;;;;;;;-1.48;100.00;94462.88;1024200;29;20019;-72
2020/12/30 01:35:42;;;;;;;11.55;8.05;;;;;;;-1.48;100.00;94460.25;1024327;29;20019;-73
2020/12/30 01:36:13;;;;;;;12.27;6.65;;;;;;;-1.45;100.00;94467.78;1028252;28;20023;-73
2020/12/30 01:36:43;;;;;;;14.82;8.00;;;;;;;-1.48;100.00;94473.28;1028130;28;20030;-73
2020/12/30 01:37:14;;;;;;;13.93;8.10;;;;;;;-1.47;100.00;94471.50;1024303;29;20015;-72
2020/12/30 01:37:45;;;;;;;13.13;7.35;;;;;;;-1.53;100.00;94463.28;1024210;29;20526;-73
2020/12/30 01:38:16;;;;;;;11.93;7.13;;;;;;;-1.49;100.00;94458.59;1028231;28;20027;-73
2020/12/30 01:38:47;;;;;;;12.05;7.15;;;;;;;-1.41;100.00;94470.91;1028282;28;20029;-73
2020/12/30 01:39:18;;;;;;;11.07;6.53;;;;;;;-1.37;100.00;94472.31;1028233;28;20019;-73
2020/12/30 01:39:49;;;;;;;10.52;6.32;;;;;;;-1.31;100.00;94473.50;1032426;28;20037;-72
2020/12/30 01:40:20;;;;;;;11.68;6.57;;;;;;;-1.28;100.00;94473.25;1024180;29;20026;-73
2020/12/30 01:41:00;;;;;;;11.50;6.85;;;;;;;-1.32;100.00;94462.28;1024196;29;20516;-73
2020/12/30 01:41:31;;;;;;;9.07;6.00;;;;;;;-1.26;100.00;94468.72;1024488;29;20011;-73
2020/12/30 01:42:02;;;;;;;11.98;6.20;;;;;;;-1.28;100.00;94473.25;1028231;28;20034;-73
2020/12/30 01:42:48;;;;;;;9.57;6.05;;;;;;;-1.27;100.00;94470.50;1025600;28;20027;-73
2020/12/30 01:43:19;;;;;;;11.55;6.28;;;;;;;-1.27;100.00;94467.06;1024257;29;20022;-73
2020/12/30 01:43:57;;;;;;;10.77;6.70;;;;;;;-1.31;100.00;94463.09;1032094;28;20014;-73
2020/12/30 01:44:28;;;;;;;9.07;5.38;;;;;;;-1.28;100.00;94473.25;1032145;28;20042;-73
2020/12/30 01:44:59;;;;;;;11.15;5.63;;;;;;;-1.35;100.00;94458.16;1028160;28;20263;-73
2020/12/30 01:45:30;;;;;;;10.80;5.95;;;;;;;-1.33;100.00;94469.25;1032222;28;20014;-73
2020/12/30 01:46:01;;;;;;;11.65;6.20;;;;;;;-1.41;100.00;94461.34;1020227;29;20015;-73
2020/12/30 01:46:41;;;;;;;9.48;5.80;;;;;;;-1.43;100.00;94463.28;1024142;29;20050;-72
2020/12/30 01:47:12;;;;;;;16.85;7.10;;;;;;;-1.46;100.00;94458.34;1024213;29;20077;-72
2020/12/30 01:47:44;;;;;;;11.77;6.32;;;;;;;-1.41;100.00;94465.72;1028190;28;20027;-73
2020/12/30 01:48:16;;;;;;;10.10;6.13;;;;;;;-1.41;100.00;94471.75;1024051;29;20023;-73
2020/12/30 01:48:47;;;;;;;12.65;7.30;;;;;;;-1.43;100.00;94460.66;1024077;29;20023;-73
2020/12/30 01:49:20;;;;;;;11.40;6.68;;;;;;;-1.49;100.00;94456.00;1024382;29;20030;-73
2020/12/30 01:49:51;;;;;;;10.15;6.45;;;;;;;-1.45;100.00;94459.97;1028208;28;20029;-73
2020/12/30 01:50:22;;;;;;;10.27;6.15;;;;;;;-1.47;100.00;94464.50;1028221;28;20014;-73
2020/12/30 01:50:53;;;;;;;10.68;6.97;;;;;;;-1.50;100.00;94456.97;1032133;28;20033;-73
2020/12/30 01:51:24;;;;;;;14.88;8.55;;;;;;;-1.50;100.00;94463.94;1024224;29;20472;-73
2020/12/30 01:51:55;;;;;;;14.82;7.75;;;;;;;-1.76;100.00;94420.28;1024193;28;20023;-73
2020/12/30 01:52:27;;;;;;;12.50;7.72;;;;;;;-1.59;100.00;94458.63;1024262;29;20110;-73
2020/12/30 01:52:58;;;;;;;14.95;8.02;;;;;;;-1.59;100.00;94463.00;1024103;29;20015;-73
2020/12/30 01:53:28;;;;;;;11.38;7.30;;;;;;;-1.58;100.00;94459.47;1020385;29;20389;-73
2020/12/30 01:54:00;;;;;;;14.05;7.88;;;;;;;-1.59;100.00;94463.00;1028159;28;20118;-73
2020/12/30 01:54:30;;;;;;;14.13;7.20;;;;;;;-1.61;100.00;94451.91;1036210;28;20026;-72
2020/12/30 01:55:01;;;;;;;11.15;6.82;;;;;;;-1.62;100.00;94458.91;1020121;29;20031;-73
2020/12/30 01:55:32;;;;;;;11.07;6.95;;;;;;;-1.60;100.00;94469.16;1028223;28;20092;-73
2020/12/30 01:56:02;;;;;;;14.00;7.45;;;;;;;-1.63;100.00;94457.25;1020223;29;20058;-73
2020/12/30 01:56:33;;;;;;;16.02;8.48;;;;;;;-1.66;100.00;94467.94;1020387;29;20027;-73
2020/12/30 01:57:04;;;;;;;15.80;9.02;;;;;;;-1.64;100.00;94471.22;1024005;29;20043;-73
2020/12/30 01:57:36;;;;;;;11.05;7.38;;;;;;;-1.63;100.00;94464.25;1028261;28;20037;-73
2020/12/30 01:58:08;;;;;;;13.88;8.07;;;;;;;-1.67;100.00;94461.09;1024110;29;20038;-73
2020/12/30 01:58:38;;;;;;;14.02;8.52;;;;;;;-1.76;100.00;94452.34;1024209;29;20118;-73
2020/12/30 01:59:11;;;;;;;13.10;8.05;;;;;;;-1.73;100.00;94467.66;1028062;28;20023;-73
2020/12/30 01:59:41;;;;;;;12.73;7.38;;;;;;;-1.68;100.00;94464.66;1024401;29;20023;-73
2020/12/30 02:00:12;;;;;;;12.75;7.95;;;;;;;-1.69;100.00;94467.41;1024189;29;20027;-73
2020/12/30 02:00:48;;;;;;;16.13;8.88;;;;;;;-1.79;100.00;94454.41;1028187;28;20034;-73
2020/12/30 02:01:20;;;;;;;18.02;8.55;;;;;;;-1.80;100.00;94456.16;1028240;28;20025;-73
2020/12/30 02:02:01;;;;;;;14.60;8.02;;;;;;;-1.71;100.00;94470.13;1024090;29;20020;-73
2020/12/30 02:02:31;;;;;;;13.32;8.50;;;;;;;-1.73;100.00;94467.66;1028182;28;20174;-73
2020/12/30 02:03:03;;;;;;;14.57;9.07;;;;;;;-1.82;100.00;94459.88;1027969;28;20088;-73
2020/12/30 02:03:38;;;;;;;13.30;8.02;;;;;;;-1.75;100.00;94472.19;1024065;29;20097;-73
2020/12/30 02:04:10;;;;;;;11.82;7.60;;;;;;;-1.77;100.00;94471.50;1028073;28;20023;-73
2020/12/30 02:04:50;;;;;;;14.25;8.35;;;;;;;-1.80;100.00;94465.75;1028136;28;20266;-73
2020/12/30 02:05:22;;;;;;;16.92;8.38;;;;;;;-1.85;100.00;94458.34;1029880;28;20274;-73
2020/12/30 02:05:52;;;;;;;12.02;7.93;;;;;;;-1.83;100.00;94461.66;1030082;28;20029;-72
2020/12/30 02:06:24;;;;;;;13.15;7.97;;;;;;;-1.77;100.00;94468.91;1034259;28;20256;-72
2020/12/30 02:06:55;;;;;;;15.95;8.00;;;;;;;-1.78;100.00;94469.84;1038202;28;20026;-72
2020/12/30 02:07:26;;;;;;;15.88;8.40;;;;;;;-1.80;100.00;94469.19;1022070;29;20035;-72
2020/12/30 02:08:00;;;;;;;17.25;8.75;;;;;;;-1.82;100.00;94457.28;1034098;28;20081;-72
2020/12/30 02:08:30;;;;;;;13.30;9.02;;;;;;;-1.81;100.00;94471.91;1034283;28;20018;-72
2020/12/30 02:09:03;;;;;;;14.50;8.88;;;;;;;-1.83;100.00;94468.63;1034474;28;20023;-72
2020/12/30 02:09:34;;;;;;;13.60;8.05;;;;;;;-1.81;100.00;94464.94;1030162;28;20026;-72
2020/12/30 02:10:05;;;;;;;12.15;8.13;;;;;;;-1.83;100.00;94464.28;1033850;28;20272;-72
2020/12/30 02:10:35;;;;;;;11.73;7.47;;;;;;;-1.82;100.00;94463.28;1026083;29;20472;-73
2020/12/30 02:11:06;;;;;;;10.95;7.28;;;;;;;-1.82;100.00;94463.28;1026346;29;20042;-72
2020/12/30 02:11:37;;;;;;;12.38;6.85;;;;;;;-1.97;100.00;94442.09;1029874;28;20526;-72
2020/12/30 02:12:09;;;;;;;12.07;7.72;;;;;;;-1.82;100.00;94465.09;1026183;29;20027;-72
2020/12/30 02:12:40;;;;;;;10.93;6.40;;;;;;;-1.83;100.00;94466.88;1026324;29;20503;-72
2020/12/30 02:13:11;;;;;;;12.07;6.72;;;;;;;-1.87;100.00;94460.28;1034164;28;20090;-72
2020/12/30 02:13:42;;;;;;;15.27;8.77;;;;;;;-2.04;100.00;94427.16;1034178;28;20019;-72
2020/12/30 02:14:14;;;;;;;13.77;8.13;;;;;;;-1.85;100.00;94462.75;1028752;28;20095;-72
2020/12/30 02:14:44;;;;;;;13.68;7.20;;;;;;;-1.85;100.00;94462.75;1032310;28;20022;-72
2020/12/30 02:15:32;;;;;;;12.70;8.02;;;;;;;-1.86;100.00;94466.28;1032241;28;20355;-73
2020/12/30 02:16:03;;;;;;;11.98;7.15;;;;;;;-1.87;100.00;94465.47;1032261;28;20470;-73
2020/12/30 02:16:51;;;;;;;13.15;8.27;;;;;;;-1.85;100.00;94458.34;1032071;28;20113;-73
2020/12/30 02:17:22;;;;;;;12.80;7.38;;;;;;;-2.04;100.00;94437.56;1028148;28;20038;-73
2020/12/30 02:17:53;;;;;;;15.95;7.68;;;;;;;-1.94;100.00;94456.59;1032019;28;20372;-74
2020/12/30 02:18:24;;;;;;;13.77;7.53;;;;;;;-1.88;100.00;94463.00;1024063;29;20019;-74
2020/12/30 02:18:55;;;;;;;11.10;7.50;;;;;;;-1.85;100.00;94466.16;1028120;28;20026;-73
2020/12/30 02:19:26;;;;;;;14.90;8.40;;;;;;;-1.87;100.00;94470.69;1024159;29;20465;-72
2020/12/30 02:19:57;;;;;;;11.65;7.60;;;;;;;-1.88;100.00;94469.06;1023938;29;20297;-73
2020/12/30 02:20:30;;;;;;;12.10;7.18;;;;;;;-1.92;100.00;94455.47;1028105;28;20623;-73
2020/12/30 02:21:01;;;;;;;15.07;7.10;;;;;;;-1.84;100.00;94469.59;1028129;28;20018;-73
2020/12/30 02:21:32;;;;;;;10.38;6.25;;;;;;;-1.84;100.00;94465.22;1028351;28;20169;-72
2020/12/30 02:22:03;;;;;;;12.75;8.05;;;;;;;-1.87;100.00;94467.28;1024168;29;20523;-72
2020/12/30 02:22:34;;;;;;;12.88;6.60;;;;;;;-1.92;100.00;94454.66;1024470;29;20023;-72
2020/12/30 02:23:08;;;;;;;10.60;6.47;;;;;;;-1.79;100.00;94472.63;1028498;28;20131;-72
2020/12/30 02:23:39;;;;;;;11.18;6.13;;;;;;;-1.76;100.00;94473.16;1036751;28;20032;-72
2020/12/30 02:24:12;;;;;;;10.05;6.20;;;;;;;-1.80;100.00;94461.38;1032363;28;20261;-72
2020/12/30 02:24:45;;;;;;;11.15;6.40;;;;;;;-1.68;100.00;94469.88;1024756;29;20050;-72
2020/12/30 02:25:16;;;;;;;12.18;6.50;;;;;;;-1.64;100.00;94475.59;1024420;29;20266;-71